sensor_id;sensor_type;location;lat;lon;timestamp;pressure;altitude;pressure_sealevel;temperature;humidity
69751;BME280;57335;52.288;6.056;2023-11-19T00:00:48;100721.97;;;12.45;100.00
69751;BME280;57335;52.288;6.056;2023-11-19T00:03:17;100716.03;;;12.50;100.00
69751;BME280;57335;52.288;6.056;2023-11-19T00:05:44;100709.09;;;12.55;100.00
69751;BME280;57335;52.288;6.056;2023-11-19T00:08:10;100703.69;;;12.50;100.00
69751;BME280;57335;52.288;6.056;2023-11-19T00:10:37;100691.72;;;12.54;100.00
69751;BME280;57335;52.288;6.056;2023-11-19T00:13:03;100692.88;;;12.58;100.00
69751;BME280;57335;52.288;6.056;2023-11-19T00:15:30;100690.97;;;12.66;100.00
69751;BME280;57335;52.288;6.056;2023-11-19T00:17:57;100697.69;;;12.62;100.00
69751;BME280;57335;52.288;6.056;2023-11-19T00:20:27;100704.69;;;12.68;100.00
69751;BME280;57335;52.288;6.056;2023-11-19T00:22:54;100695.75;;;12.69;100.00
69751;BME280;57335;52.288;6.056;2023-11-19T00:25:21;100702.78;;;12.75;100.00
69751;BME280;57335;52.288;6.056;2023-11-19T00:27:48;100685.84;;;12.71;100.00
69751;BME280;57335;52.288;6.056;2023-11-19T00:30:15;100695.91;;;12.74;100.00
69751;BME280;57335;52.288;6.056;2023-11-19T00:32:41;100696.72;;;12.74;100.00
69751;BME280;57335;52.288;6.056;2023-11-19T00:35:08;100691.22;;;12.76;100.00
69751;BME280;57335;52.288;6.056;2023-11-19T00:37:41;100696.63;;;12.81;100.00
69751;BME280;57335;52.288;6.056;2023-11-19T00:40:09;100693.84;;;12.76;100.00
69751;BME280;57335;52.288;6.056;2023-11-19T00:42:37;100692.38;;;12.80;100.00
69751;BME280;57335;52.288;6.056;2023-11-19T00:45:04;100691.13;;;12.83;100.00
69751;BME280;57335;52.288;6.056;2023-11-19T00:47:34;100688.06;;;12.86;100.00
69751;BME280;57335;52.288;6.056;2023-11-19T00:50:02;100681.75;;;12.87;100.00
69751;BME280;57335;52.288;6.056;2023-11-19T00:52:28;100662.56;;;12.86;100.00
69751;BME280;57335;52.288;6.056;2023-11-19T00:54:55;100640.94;;;12.84;100.00
69751;BME280;57335;52.288;6.056;2023-11-19T00:57:23;100623.31;;;12.85;100.00
69751;BME280;57335;52.288;6.056;2023-11-19T00:59:50;100620.38;;;12.81;100.00
69751;BME280;57335;52.288;6.056;2023-11-19T01:02:16;100602.28;;;12.73;100.00
69751;BME280;57335;52.288;6.056;2023-11-19T01:04:43;100623.31;;;12.73;100.00
69751;BME280;57335;52.288;6.056;2023-11-19T01:07:10;100638.06;;;12.74;100.00
69751;BME280;57335;52.288;6.056;2023-11-19T01:09:41;100647.44;;;12.70;100.00
69751;BME280;57335;52.288;6.056;2023-11-19T01:12:08;100654.53;;;12.69;100.00
69751;BME280;57335;52.288;6.056;2023-11-19T01:14:37;100648.44;;;12.57;100.00
69751;BME280;57335;52.288;6.056;2023-11-19T01:17:03;100643.81;;;12.52;100.00
69751;BME280;57335;52.288;6.056;2023-11-19T01:19:31;100659.16;;;12.55;100.00
69751;BME280;57335;52.288;6.056;2023-11-19T01:21:57;100661.22;;;12.53;100.00
69751;BME280;57335;52.288;6.056;2023-11-19T01:24:24;100656.97;;;12.52;100.00
69751;BME280;57335;52.288;6.056;2023-11-19T01:26:50;100662.78;;;12.54;100.00
69751;BME280;57335;52.288;6.056;2023-11-19T01:29:17;100655.38;;;12.51;100.00
69751;BME280;57335;52.288;6.056;2023-11-19T01:31:46;100656.03;;;12.47;100.00
69751;BME280;57335;52.288;6.056;2023-11-19T01:34:13;100659.47;;;12.47;100.00
69751;BME280;57335;52.288;6.056;2023-11-19T01:36:40;100651.00;;;12.45;100.00
69751;BME280;57335;52.288;6.056;2023-11-19T01:39:06;100649.06;;;12.52;100.00
69751;BME280;57335;52.288;6.056;2023-11-19T01:41:35;100630.56;;;12.47;100.00
69751;BME280;57335;52.288;6.056;2023-11-19T01:44:03;100636.63;;;12.48;100.00
69751;BME280;57335;52.288;6.056;2023-11-19T01:46:30;100629.63;;;12.42;100.00
69751;BME280;57335;52.288;6.056;2023-11-19T01:48:59;100623.44;;;12.36;100.00
69751;BME280;57335;52.288;6.056;2023-11-19T01:51:27;100633.72;;;12.37;100.00
69751;BME280;57335;52.288;6.056;2023-11-19T01:53:54;100630.06;;;12.38;100.00
69751;BME280;57335;52.288;6.056;2023-11-19T01:56:21;100630.63;;;12.41;100.00
69751;BME280;57335;52.288;6.056;2023-11-19T01:58:48;100618.63;;;12.33;100.00
69751;BME280;57335;52.288;6.056;2023-11-19T02:01:16;100614.38;;;12.32;100.00
69751;BME280;57335;52.288;6.056;2023-11-19T02:03:42;100617.81;;;12.32;100.00
69751;BME280;57335;52.288;6.056;2023-11-19T02:06:09;100610.03;;;12.26;100.00
69751;BME280;57335;52.288;6.056;2023-11-19T02:08:36;100610.38;;;12.29;100.00
69751;BME280;57335;52.288;6.056;2023-11-19T02:11:05;100601.81;;;12.34;100.00
69751;BME280;57335;52.288;6.056;2023-11-19T02:13:33;100596.88;;;12.26;100.00
69751;BME280;57335;52.288;6.056;2023-11-19T02:16:02;100607.97;;;12.28;100.00
69751;BME280;57335;52.288;6.056;2023-11-19T02:18:30;100632.56;;;12.33;100.00
69751;BME280;57335;52.288;6.056;2023-11-19T02:20:58;100617.59;;;12.34;100.00
69751;BME280;57335;52.288;6.056;2023-11-19T02:23:27;100613.97;;;12.35;100.00
69751;BME280;57335;52.288;6.056;2023-11-19T02:26:02;100618.75;;;12.38;100.00
69751;BME280;57335;52.288;6.056;2023-11-19T02:28:32;100614.38;;;12.32;100.00
69751;BME280;57335;52.288;6.056;2023-11-19T02:30:59;100621.84;;;12.35;100.00
69751;BME280;57335;52.288;6.056;2023-11-19T02:33:26;100615.53;;;12.36;100.00
69751;BME280;57335;52.288;6.056;2023-11-19T02:35:52;100620.13;;;12.41;100.00
69751;BME280;57335;52.288;6.056;2023-11-19T02:38:18;100625.63;;;12.39;100.00
69751;BME280;57335;52.288;6.056;2023-11-19T02:40:45;100628.25;;;12.39;100.00
69751;BME280;57335;52.288;6.056;2023-11-19T02:43:11;100629.63;;;12.42;100.00
69751;BME280;57335;52.288;6.056;2023-11-19T02:45:38;100627.78;;;12.42;100.00
69751;BME280;57335;52.288;6.056;2023-11-19T02:48:04;100643.91;;;12.46;100.00
69751;BME280;57335;52.288;6.056;2023-11-19T02:50:32;100644.13;;;12.44;100.00
69751;BME280;57335;52.288;6.056;2023-11-19T02:52:58;100638.44;;;12.47;100.00
69751;BME280;57335;52.288;6.056;2023-11-19T02:55:25;100625.94;;;12.43;100.00
69751;BME280;57335;52.288;6.056;2023-11-19T02:57:54;100633.03;;;12.42;100.00
69751;BME280;57335;52.288;6.056;2023-11-19T03:00:22;100632.25;;;12.42;100.00
69751;BME280;57335;52.288;6.056;2023-11-19T03:02:51;100624.00;;;12.38;100.00
69751;BME280;57335;52.288;6.056;2023-11-19T03:05:27;100627.75;;;12.30;100.00
69751;BME280;57335;52.288;6.056;2023-11-19T03:07:56;100628.63;;;12.24;100.00
69751;BME280;57335;52.288;6.056;2023-11-19T03:10:23;100628.25;;;12.21;100.00
69751;BME280;57335;52.288;6.056;2023-11-19T03:12:50;100620.25;;;12.15;100.00
69751;BME280;57335;52.288;6.056;2023-11-19T03:15:16;100623.09;;;12.14;100.00
69751;BME280;57335;52.288;6.056;2023-11-19T03:17:43;100619.09;;;12.11;100.00
69751;BME280;57335;52.288;6.056;2023-11-19T03:20:11;100624.78;;;12.08;100.00
69751;BME280;57335;52.288;6.056;2023-11-19T03:22:41;100629.25;;;12.08;100.00
69751;BME280;57335;52.288;6.056;2023-11-19T03:25:08;100634.66;;;12.13;100.00
69751;BME280;57335;52.288;6.056;2023-11-19T03:27:36;100625.59;;;12.09;100.00
69751;BME280;57335;52.288;6.056;2023-11-19T03:30:03;100628.22;;;12.09;100.00
69751;BME280;57335;52.288;6.056;2023-11-19T03:32:32;100626.19;;;12.11;100.00
69751;BME280;57335;52.288;6.056;2023-11-19T03:34:59;100628.00;;;12.10;100.00
69751;BME280;57335;52.288;6.056;2023-11-19T03:37:26;100627.56;;;12.13;100.00
69751;BME280;57335;52.288;6.056;2023-11-19T03:39:54;100634.66;;;12.13;100.00
69751;BME280;57335;52.288;6.056;2023-11-19T03:42:21;100629.69;;;12.05;100.00
69751;BME280;57335;52.288;6.056;2023-11-19T03:44:47;100607.94;;;11.97;100.00
69751;BME280;57335;52.288;6.056;2023-11-19T03:47:15;100601.75;;;11.92;100.00
69751;BME280;57335;52.288;6.056;2023-11-19T03:49:42;100608.91;;;11.85;100.00
69751;BME280;57335;52.288;6.056;2023-11-19T03:52:08;100600.06;;;11.79;100.00
69751;BME280;57335;52.288;6.056;2023-11-19T03:54:45;100608.31;;;11.83;100.00
69751;BME280;57335;52.288;6.056;2023-11-19T03:57:12;100599.53;;;11.70;100.00
69751;BME280;57335;52.288;6.056;2023-11-19T03:59:39;100593.50;;;11.70;100.00
69751;BME280;57335;52.288;6.056;2023-11-19T04:02:06;100606.91;;;11.62;100.00
69751;BME280;57335;52.288;6.056;2023-11-19T04:04:32;100600.28;;;11.59;100.00
69751;BME280;57335;52.288;6.056;2023-11-19T04:07:00;100594.75;;;11.49;100.00
69751;BME280;57335;52.288;6.056;2023-11-19T04:09:27;100608.00;;;11.54;100.00
69751;BME280;57335;52.288;6.056;2023-11-19T04:11:53;100605.81;;;11.51;100.00
69751;BME280;57335;52.288;6.056;2023-11-19T04:14:20;100604.06;;;11.45;100.00
69751;BME280;57335;52.288;6.056;2023-11-19T04:16:46;100609.75;;;11.42;100.00
69751;BME280;57335;52.288;6.056;2023-11-19T04:19:13;100593.69;;;11.31;100.00
69751;BME280;57335;52.288;6.056;2023-11-19T04:21:40;100601.41;;;11.26;100.00
69751;BME280;57335;52.288;6.056;2023-11-19T04:24:09;100604.25;;;11.25;100.00
69751;BME280;57335;52.288;6.056;2023-11-19T04:26:41;100605.34;;;11.17;100.00
69751;BME280;57335;52.288;6.056;2023-11-19T04:29:09;100613.78;;;11.19;100.00
69751;BME280;57335;52.288;6.056;2023-11-19T04:31:37;100612.03;;;11.13;100.00
69751;BME280;57335;52.288;6.056;2023-11-19T04:34:03;100624.91;;;11.14;100.00
69751;BME280;57335;52.288;6.056;2023-11-19T04:36:30;100638.66;;;11.10;100.00
69751;BME280;57335;52.288;6.056;2023-11-19T04:38:56;100638.66;;;11.10;100.00
69751;BME280;57335;52.288;6.056;2023-11-19T04:41:22;100642.72;;;11.06;100.00
69751;BME280;57335;52.288;6.056;2023-11-19T04:43:49;100647.59;;;11.02;100.00
69751;BME280;57335;52.288;6.056;2023-11-19T04:46:16;100650.00;;;11.04;100.00
69751;BME280;57335;52.288;6.056;2023-11-19T04:48:42;100650.34;;;11.14;100.00
69751;BME280;57335;52.288;6.056;2023-11-19T04:51:08;100644.50;;;11.12;100.00
69751;BME280;57335;52.288;6.056;2023-11-19T04:53:36;100631.00;;;11.08;100.00
69751;BME280;57335;52.288;6.056;2023-11-19T04:56:09;100637.44;;;11.12;100.00
69751;BME280;57335;52.288;6.056;2023-11-19T04:58:35;100630.59;;;11.11;100.00
69751;BME280;57335;52.288;6.056;2023-11-19T05:01:04;100625.56;;;11.10;100.00
69751;BME280;57335;52.288;6.056;2023-11-19T05:03:31;100630.81;;;11.10;100.00
69751;BME280;57335;52.288;6.056;2023-11-19T05:05:58;100636.63;;;11.12;100.00
69751;BME280;57335;52.288;6.056;2023-11-19T05:08:25;100635.56;;;11.20;100.00
69751;BME280;57335;52.288;6.056;2023-11-19T05:10:52;100638.03;;;11.14;100.00
69751;BME280;57335;52.288;6.056;2023-11-19T05:13:18;100628.72;;;11.18;100.00
69751;BME280;57335;52.288;6.056;2023-11-19T05:15:44;100630.53;;;11.18;100.00
69751;BME280;57335;52.288;6.056;2023-11-19T05:18:11;100627.59;;;11.08;100.00
69751;BME280;57335;52.288;6.056;2023-11-19T05:20:37;100628.56;;;11.13;100.00
69751;BME280;57335;52.288;6.056;2023-11-19T05:23:03;100637.44;;;11.12;100.00
69751;BME280;57335;52.288;6.056;2023-11-19T05:25:30;100647.50;;;11.15;100.00
69751;BME280;57335;52.288;6.056;2023-11-19T05:27:56;100637.06;;;11.09;100.00
69751;BME280;57335;52.288;6.056;2023-11-19T05:30:23;100638.66;;;11.10;100.00
69751;BME280;57335;52.288;6.056;2023-11-19T05:32:49;100654.00;;;11.13;100.00
69751;BME280;57335;52.288;6.056;2023-11-19T05:35:15;100642.91;;;11.11;100.00
69751;BME280;57335;52.288;6.056;2023-11-19T05:37:42;100643.06;;;11.16;100.00
69751;BME280;57335;52.288;6.056;2023-11-19T05:40:09;100627.97;;;11.11;100.00
69751;BME280;57335;52.288;6.056;2023-11-19T05:42:41;100635.78;;;11.18;100.00
69751;BME280;57335;52.288;6.056;2023-11-19T05:45:11;100645.25;;;11.19;100.00
69751;BME280;57335;52.288;6.056;2023-11-19T05:47:38;100642.84;;;11.17;100.00
69751;BME280;57335;52.288;6.056;2023-11-19T05:50:04;100641.09;;;11.11;100.00
69751;BME280;57335;52.288;6.056;2023-11-19T05:52:32;100651.41;;;11.06;100.00
69751;BME280;57335;52.288;6.056;2023-11-19T05:55:00;100638.34;;;11.00;100.00
69751;BME280;57335;52.288;6.056;2023-11-19T05:57:30;100642.00;;;10.98;100.00
69751;BME280;57335;52.288;6.056;2023-11-19T05:59:57;100648.78;;;11.06;100.00
69751;BME280;57335;52.288;6.056;2023-11-19T06:02:25;100640.00;;;10.94;100.00
69751;BME280;57335;52.288;6.056;2023-11-19T06:04:53;100650.47;;;11.01;100.00
69751;BME280;57335;52.288;6.056;2023-11-19T06:07:19;100644.84;;;10.97;100.00
69751;BME280;57335;52.288;6.056;2023-11-19T06:09:46;100630.75;;;10.91;100.00
69751;BME280;57335;52.288;6.056;2023-11-19T06:12:12;100663.50;;;11.07;100.00
69751;BME280;57335;52.288;6.056;2023-11-19T06:14:40;100651.25;;;11.01;100.00
69751;BME280;57335;52.288;6.056;2023-11-19T06:17:06;100651.25;;;11.01;100.00
69751;BME280;57335;52.288;6.056;2023-11-19T06:19:34;100654.88;;;11.00;100.00
69751;BME280;57335;52.288;6.056;2023-11-19T06:22:01;100664.91;;;11.10;100.00
69751;BME280;57335;52.288;6.056;2023-11-19T06:24:27;100672.19;;;11.08;100.00
69751;BME280;57335;52.288;6.056;2023-11-19T06:26:54;100668.00;;;11.00;100.00
69751;BME280;57335;52.288;6.056;2023-11-19T06:29:20;100662.16;;;10.98;100.00
69751;BME280;57335;52.288;6.056;2023-11-19T06:31:46;100675.44;;;11.03;100.00
69751;BME280;57335;52.288;6.056;2023-11-19T06:34:15;100660.19;;;10.93;100.00
69751;BME280;57335;52.288;6.056;2023-11-19T06:36:41;100665.00;;;10.96;100.00
69751;BME280;57335;52.288;6.056;2023-11-19T06:39:11;100648.50;;;10.89;100.00
69751;BME280;57335;52.288;6.056;2023-11-19T06:41:37;100659.59;;;10.91;100.00
69751;BME280;57335;52.288;6.056;2023-11-19T06:44:05;100652.38;;;10.80;100.00
69751;BME280;57335;52.288;6.056;2023-11-19T06:46:31;100655.88;;;10.74;100.00
69751;BME280;57335;52.288;6.056;2023-11-19T06:48:58;100667.97;;;10.75;100.00
69751;BME280;57335;52.288;6.056;2023-11-19T06:51:24;100653.50;;;10.66;100.00
69751;BME280;57335;52.288;6.056;2023-11-19T06:53:51;100667.19;;;10.68;100.00
69751;BME280;57335;52.288;6.056;2023-11-19T06:56:21;100660.94;;;10.69;100.00
69751;BME280;57335;52.288;6.056;2023-11-19T06:58:48;100658.16;;;10.64;100.00
69751;BME280;57335;52.288;6.056;2023-11-19T07:01:18;100666.44;;;10.61;100.00
69751;BME280;57335;52.288;6.056;2023-11-19T07:03:46;100681.72;;;10.64;100.00
69751;BME280;57335;52.288;6.056;2023-11-19T07:06:13;100672.88;;;10.65;100.00
69751;BME280;57335;52.288;6.056;2023-11-19T07:08:42;100674.47;;;10.66;100.00
69751;BME280;57335;52.288;6.056;2023-11-19T07:11:13;100673.66;;;10.65;100.00
69751;BME280;57335;52.288;6.056;2023-11-19T07:13:43;100673.47;;;10.67;100.00
69751;BME280;57335;52.288;6.056;2023-11-19T07:16:10;100670.41;;;10.70;100.00
69751;BME280;57335;52.288;6.056;2023-11-19T07:18:36;100668.81;;;10.69;100.00
69751;BME280;57335;52.288;6.056;2023-11-19T07:21:04;100678.09;;;10.65;100.00
69751;BME280;57335;52.288;6.056;2023-11-19T07:23:30;100682.91;;;10.68;100.00
69751;BME280;57335;52.288;6.056;2023-11-19T07:25:57;100676.09;;;10.60;100.00
69751;BME280;57335;52.288;6.056;2023-11-19T07:28:23;100693.00;;;10.71;100.00
69751;BME280;57335;52.288;6.056;2023-11-19T07:30:51;100699.63;;;10.73;100.00
69751;BME280;57335;52.288;6.056;2023-11-19T07:33:17;100687.41;;;10.61;100.00
69751;BME280;57335;52.288;6.056;2023-11-19T07:35:44;100694.44;;;10.67;100.00
69751;BME280;57335;52.288;6.056;2023-11-19T07:38:11;100689.59;;;10.64;100.00
69751;BME280;57335;52.288;6.056;2023-11-19T07:44:27;100720.78;;;10.72;100.00
69751;BME280;57335;52.288;6.056;2023-11-19T07:46:54;100726.03;;;10.72;100.00
69751;BME280;57335;52.288;6.056;2023-11-19T07:49:20;100731.47;;;10.77;100.00
69751;BME280;57335;52.288;6.056;2023-11-19T07:51:47;100729.25;;;10.74;100.00
69751;BME280;57335;52.288;6.056;2023-11-19T07:54:13;100728.41;;;10.80;100.00
69751;BME280;57335;52.288;6.056;2023-11-19T07:56:40;100731.84;;;10.81;100.00
69751;BME280;57335;52.288;6.056;2023-11-19T07:59:06;100729.19;;;10.87;100.00
69751;BME280;57335;52.288;6.056;2023-11-19T08:01:33;100732.81;;;10.86;100.00
69751;BME280;57335;52.288;6.056;2023-11-19T08:03:59;100723.16;;;10.87;100.00
69751;BME280;57335;52.288;6.056;2023-11-19T08:06:28;100717.88;;;10.93;100.00
69751;BME280;57335;52.288;6.056;2023-11-19T08:08:55;100721.47;;;10.92;100.00
69751;BME280;57335;52.288;6.056;2023-11-19T08:11:21;100719.88;;;10.91;100.00
69751;BME280;57335;52.288;6.056;2023-11-19T08:16:33;100713.84;;;10.91;100.00
69751;BME280;57335;52.288;6.056;2023-11-19T08:18:59;100717.59;;;11.02;100.00
69751;BME280;57335;52.288;6.056;2023-11-19T08:21:26;100707.75;;;10.97;100.00
69751;BME280;57335;52.288;6.056;2023-11-19T08:23:53;100722.22;;;11.06;100.00
69751;BME280;57335;52.288;6.056;2023-11-19T08:26:19;100718.53;;;11.14;100.00
69751;BME280;57335;52.288;6.056;2023-11-19T08:28:47;100709.22;;;11.18;100.00
69751;BME280;57335;52.288;6.056;2023-11-19T08:31:14;100724.09;;;11.24;100.00
69751;BME280;57335;52.288;6.056;2023-11-19T08:33:40;100716.78;;;11.33;100.00
69751;BME280;57335;52.288;6.056;2023-11-19T08:36:07;100719.56;;;11.38;100.00
69751;BME280;57335;52.288;6.056;2023-11-19T08:38:34;100708.44;;;11.43;100.00
69751;BME280;57335;52.288;6.056;2023-11-19T08:41:00;100714.09;;;11.40;100.00
69751;BME280;57335;52.288;6.056;2023-11-19T08:43:27;100718.66;;;11.51;100.00
69751;BME280;57335;52.288;6.056;2023-11-19T08:45:54;100709.34;;;11.55;100.00
69751;BME280;57335;52.288;6.056;2023-11-19T08:48:21;100713.34;;;11.57;100.00
69751;BME280;57335;52.288;6.056;2023-11-19T08:50:47;100706.88;;;11.60;100.00
69751;BME280;57335;52.288;6.056;2023-11-19T08:53:14;100714.94;;;11.58;100.00
69751;BME280;57335;52.288;6.056;2023-11-19T08:55:41;100701.63;;;11.60;100.00
69751;BME280;57335;52.288;6.056;2023-11-19T08:58:08;100720.53;;;11.69;100.00
69751;BME280;57335;52.288;6.056;2023-11-19T09:00:35;100721.34;;;11.69;100.00
69751;BME280;57335;52.288;6.056;2023-11-19T09:03:01;100728.75;;;11.72;100.00
69751;BME280;57335;52.288;6.056;2023-11-19T09:05:28;100731.38;;;11.72;100.00
69751;BME280;57335;52.288;6.056;2023-11-19T09:07:55;100728.94;;;11.77;100.00
69751;BME280;57335;52.288;6.056;2023-11-19T09:10:21;100720.38;;;11.82;100.00
69751;BME280;57335;52.288;6.056;2023-11-19T09:12:48;100719.00;;;11.80;100.00
69751;BME280;57335;52.288;6.056;2023-11-19T09:15:14;100727.06;;;11.85;100.00
69751;BME280;57335;52.288;6.056;2023-11-19T09:17:41;100735.53;;;11.87;100.00
69751;BME280;57335;52.288;6.056;2023-11-19T09:20:08;100736.94;;;11.89;100.00
69751;BME280;57335;52.288;6.056;2023-11-19T09:22:38;100725.19;;;11.92;100.00
69751;BME280;57335;52.288;6.056;2023-11-19T09:25:04;100716.28;;;11.93;100.00
69751;BME280;57335;52.288;6.056;2023-11-19T09:27:31;100732.06;;;11.93;100.00
69751;BME280;57335;52.288;6.056;2023-11-19T09:29:58;100716.63;;;11.96;100.00
69751;BME280;57335;52.288;6.056;2023-11-19T09:32:25;100716.06;;;11.94;100.00
69751;BME280;57335;52.288;6.056;2023-11-19T09:34:52;100718.47;;;11.96;100.00
69751;BME280;57335;52.288;6.056;2023-11-19T09:37:18;100718.47;;;11.96;100.00
69751;BME280;57335;52.288;6.056;2023-11-19T09:39:48;100730.34;;;11.98;100.00
69751;BME280;57335;52.288;6.056;2023-11-19T09:42:14;100711.75;;;12.00;100.00
69751;BME280;57335;52.288;6.056;2023-11-19T09:44:42;100722.56;;;12.10;100.00
69751;BME280;57335;52.288;6.056;2023-11-19T09:47:11;100725.19;;;12.10;100.00
69751;BME280;57335;52.288;6.056;2023-11-19T09:49:38;100730.00;;;12.13;100.00
69751;BME280;57335;52.288;6.056;2023-11-19T09:52:05;100723.13;;;12.12;100.00
69751;BME280;57335;52.288;6.056;2023-11-19T09:54:32;100718.03;;;12.17;100.00
69751;BME280;57335;52.288;6.056;2023-11-19T09:56:59;100720.22;;;12.21;100.00
69751;BME280;57335;52.288;6.056;2023-11-19T09:59:30;100723.00;;;12.26;100.00
69751;BME280;57335;52.288;6.056;2023-11-19T10:01:57;100724.00;;;12.25;100.00
69751;BME280;57335;52.288;6.056;2023-11-19T10:04:25;100729.06;;;12.26;100.00
69751;BME280;57335;52.288;6.056;2023-11-19T10:06:55;100716.97;;;12.25;100.00
69751;BME280;57335;52.288;6.056;2023-11-19T10:09:22;100724.16;;;12.30;100.00
69751;BME280;57335;52.288;6.056;2023-11-19T10:11:49;100726.59;;;12.31;100.00
69751;BME280;57335;52.288;6.056;2023-11-19T10:14:18;100727.06;;;12.40;100.00
69751;BME280;57335;52.288;6.056;2023-11-19T10:16:46;100721.88;;;12.52;100.00
69751;BME280;57335;52.288;6.056;2023-11-19T10:19:19;100726.13;;;12.53;100.00
69751;BME280;57335;52.288;6.056;2023-11-19T10:21:49;100722.94;;;12.63;100.00
69751;BME280;57335;52.288;6.056;2023-11-19T10:24:15;100718.72;;;12.62;100.00
69751;BME280;57335;52.288;6.056;2023-11-19T10:26:44;100711.84;;;12.61;100.00
69751;BME280;57335;52.288;6.056;2023-11-19T10:29:13;100716.81;;;12.69;100.00
69751;BME280;57335;52.288;6.056;2023-11-19T10:31:40;100710.63;;;12.63;100.00
69751;BME280;57335;52.288;6.056;2023-11-19T10:34:24;100710.38;;;12.65;100.00
69751;BME280;57335;52.288;6.056;2023-11-19T10:36:51;100700.63;;;12.53;100.00
69751;BME280;57335;52.288;6.056;2023-11-19T10:39:18;100709.22;;;12.61;100.00
69751;BME280;57335;52.288;6.056;2023-11-19T10:41:44;100702.97;;;12.62;100.00
69751;BME280;57335;52.288;6.056;2023-11-19T10:44:11;100706.38;;;12.62;100.00
69751;BME280;57335;52.288;6.056;2023-11-19T10:46:41;100707.41;;;12.61;100.00
69751;BME280;57335;52.288;6.056;2023-11-19T10:49:09;100704.22;;;12.59;100.00
69751;BME280;57335;52.288;6.056;2023-11-19T10:51:36;100684.94;;;12.47;100.00
69751;BME280;57335;52.288;6.056;2023-11-19T10:54:04;100694.13;;;12.56;100.00
69751;BME280;57335;52.288;6.056;2023-11-19T10:56:34;100697.13;;;12.60;100.00
69751;BME280;57335;52.288;6.056;2023-11-19T10:59:01;100699.38;;;12.56;100.00
69751;BME280;57335;52.288;6.056;2023-11-19T11:01:50;100703.97;;;12.61;100.00
69751;BME280;57335;52.288;6.056;2023-11-19T11:04:22;100710.97;;;12.67;100.00
69751;BME280;57335;52.288;6.056;2023-11-19T11:06:51;100691.97;;;12.65;100.00
69751;BME280;57335;52.288;6.056;2023-11-19T11:09:17;100707.75;;;12.65;100.00
69751;BME280;57335;52.288;6.056;2023-11-19T11:11:47;100704.13;;;12.66;100.00
69751;BME280;57335;52.288;6.056;2023-11-19T11:14:14;100697.97;;;12.72;100.00
69751;BME280;57335;52.288;6.056;2023-11-19T11:16:43;100708.63;;;12.77;100.00
69751;BME280;57335;52.288;6.056;2023-11-19T11:19:10;100689.19;;;12.78;100.00
69751;BME280;57335;52.288;6.056;2023-11-19T11:21:40;100684.50;;;12.80;100.00
69751;BME280;57335;52.288;6.056;2023-11-19T11:24:33;100687.38;;;12.90;100.00
69751;BME280;57335;52.288;6.056;2023-11-19T11:29:47;100673.78;;;12.93;100.00
69751;BME280;57335;52.288;6.056;2023-11-19T11:32:37;100662.56;;;12.86;100.00
69751;BME280;57335;52.288;6.056;2023-11-19T11:38:04;100689.19;;;12.78;100.00
69751;BME280;57335;52.288;6.056;2023-11-19T11:40:33;100670.06;;;12.71;100.00
69751;BME280;57335;52.288;6.056;2023-11-19T11:42:59;100682.53;;;12.75;100.00
69751;BME280;57335;52.288;6.056;2023-11-19T11:45:39;100670.50;;;12.68;100.00
69751;BME280;57335;52.288;6.056;2023-11-19T11:48:11;100681.03;;;12.68;100.00
69751;BME280;57335;52.288;6.056;2023-11-19T11:50:51;100692.81;;;12.65;100.00
69751;BME280;57335;52.288;6.056;2023-11-19T11:53:22;100685.00;;;12.58;100.00
69751;BME280;57335;52.288;6.056;2023-11-19T11:58:22;100671.25;;;12.56;100.00
69751;BME280;57335;52.288;6.056;2023-11-19T12:00:52;100673.47;;;12.60;100.00
69751;BME280;57335;52.288;6.056;2023-11-19T12:03:22;100671.66;;;12.72;100.00
69751;BME280;57335;52.288;6.056;2023-11-19T12:05:49;100664.22;;;12.69;100.00
69751;BME280;57335;52.288;6.056;2023-11-19T12:08:20;100662.31;;;12.76;100.00
69751;BME280;57335;52.288;6.056;2023-11-19T12:10:56;100665.97;;;12.75;100.00
69751;BME280;57335;52.288;6.056;2023-11-19T12:13:29;100660.72;;;12.75;100.00
69751;BME280;57335;52.288;6.056;2023-11-19T12:16:09;100681.19;;;12.73;100.00
69751;BME280;57335;52.288;6.056;2023-11-19T12:18:38;100667.19;;;12.72;100.00
69751;BME280;57335;52.288;6.056;2023-11-19T12:21:05;100677.72;;;12.72;100.00
69751;BME280;57335;52.288;6.056;2023-11-19T12:23:32;100668.34;;;12.76;100.00
69751;BME280;57335;52.288;6.056;2023-11-19T12:25:58;100668.13;;;12.78;100.00
69751;BME280;57335;52.288;6.056;2023-11-19T12:28:25;100657.97;;;12.82;100.00
69751;BME280;57335;52.288;6.056;2023-11-19T12:31:07;100679.59;;;12.84;100.00
69751;BME280;57335;52.288;6.056;2023-11-19T12:33:35;100659.34;;;12.84;100.00
69751;BME280;57335;52.288;6.056;2023-11-19T12:36:02;100657.63;;;12.78;100.00
69751;BME280;57335;52.288;6.056;2023-11-19T12:38:32;100656.38;;;12.81;100.00
69751;BME280;57335;52.288;6.056;2023-11-19T12:41:05;100668.72;;;12.80;100.00
69751;BME280;57335;52.288;6.056;2023-11-19T12:43:32;100657.94;;;12.70;100.00
69751;BME280;57335;52.288;6.056;2023-11-19T12:46:25;100656.09;;;12.70;100.00
69751;BME280;57335;52.288;6.056;2023-11-19T12:48:53;100667.78;;;12.74;100.00
69751;BME280;57335;52.288;6.056;2023-11-19T12:51:20;100665.97;;;12.75;100.00
69751;BME280;57335;52.288;6.056;2023-11-19T12:53:48;100670.97;;;12.76;100.00
69751;BME280;57335;52.288;6.056;2023-11-19T12:56:15;100665.72;;;12.76;100.00
69751;BME280;57335;52.288;6.056;2023-11-19T12:58:42;100648.94;;;12.77;100.00